sensor_id;sensor_type;location;lat;lon;timestamp;pressure;altitude;pressure_sealevel;temperature;humidity
75604;BME280;64187;51.010;13.792;2024-03-02T00:04:37;99252.94;;;10.39;92.43
75604;BME280;64187;51.010;13.792;2024-03-02T00:09:37;99246.13;;;10.31;92.61
75604;BME280;64187;51.010;13.792;2024-03-02T00:14:36;99239.94;;;10.35;92.39
75604;BME280;64187;51.010;13.792;2024-03-02T00:19:38;99249.63;;;10.26;92.94
75604;BME280;64187;51.010;13.792;2024-03-02T00:24:39;99251.03;;;10.39;91.71
75604;BME280;64187;51.010;13.792;2024-03-02T00:29:40;99243.50;;;10.46;91.97
75604;BME280;64187;51.010;13.792;2024-03-02T00:34:39;99239.94;;;10.41;91.65
75604;BME280;64187;51.010;13.792;2024-03-02T00:39:38;99246.19;;;10.36;91.87
75604;BME280;64187;51.010;13.792;2024-03-02T00:44:37;99252.09;;;10.38;91.92
75604;BME280;64187;51.010;13.792;2024-03-02T00:49:37;99250.50;;;10.47;91.89
75604;BME280;64187;51.010;13.792;2024-03-02T00:54:39;99251.84;;;10.40;92.15
75604;BME280;64187;51.010;13.792;2024-03-02T00:59:38;99252.41;;;10.42;92.31
75604;BME280;64187;51.010;13.792;2024-03-02T01:04:36;99247.53;;;10.44;92.10
75604;BME280;64187;51.010;13.792;2024-03-02T01:09:35;99241.59;;;10.47;91.92
75604;BME280;64187;51.010;13.792;2024-03-02T01:14:34;99232.44;;;10.68;90.47
75604;BME280;64187;51.010;13.792;2024-03-02T01:19:34;99238.09;;;10.56;90.93
75604;BME280;64187;51.010;13.792;2024-03-02T01:24:32;99239.19;;;10.86;89.43
75604;BME280;64187;51.010;13.792;2024-03-02T01:29:31;99237.53;;;10.39;91.93
75604;BME280;64187;51.010;13.792;2024-03-02T01:34:30;99240.50;;;10.48;91.67
75604;BME280;64187;51.010;13.792;2024-03-02T01:39:29;99238.06;;;10.46;92.03
75604;BME280;64187;51.010;13.792;2024-03-02T01:44:28;99238.91;;;10.57;90.84
75604;BME280;64187;51.010;13.792;2024-03-02T01:49:27;99236.44;;;10.61;91.21
75604;BME280;64187;51.010;13.792;2024-03-02T01:54:26;99232.66;;;10.36;92.11
75604;BME280;64187;51.010;13.792;2024-03-02T01:59:26;99232.38;;;10.43;91.94
75604;BME280;64187;51.010;13.792;2024-03-02T02:04:25;99225.03;;;10.33;92.24
75604;BME280;64187;51.010;13.792;2024-03-02T02:09:26;99219.41;;;10.60;91.33
75604;BME280;64187;51.010;13.792;2024-03-02T02:14:25;99222.41;;;10.74;89.85
75604;BME280;64187;51.010;13.792;2024-03-02T02:19:24;99226.16;;;10.47;90.88
75604;BME280;64187;51.010;13.792;2024-03-02T02:24:23;99232.66;;;10.36;91.82
75604;BME280;64187;51.010;13.792;2024-03-02T02:29:22;99233.47;;;10.52;91.71
75604;BME280;64187;51.010;13.792;2024-03-02T02:34:21;99233.91;;;10.23;93.21
75604;BME280;64187;51.010;13.792;2024-03-02T02:39:21;99224.00;;;10.49;91.90
75604;BME280;64187;51.010;13.792;2024-03-02T02:44:21;99224.78;;;10.34;92.34
75604;BME280;64187;51.010;13.792;2024-03-02T02:49:20;99220.13;;;10.14;93.48
75604;BME280;64187;51.010;13.792;2024-03-02T02:54:18;99222.34;;;10.33;92.95
75604;BME280;64187;51.010;13.792;2024-03-02T02:59:17;99223.38;;;10.17;93.24
75604;BME280;64187;51.010;13.792;2024-03-02T03:04:16;99214.72;;;10.25;92.66
75604;BME280;64187;51.010;13.792;2024-03-02T03:09:15;99219.31;;;10.14;92.75
75604;BME280;64187;51.010;13.792;2024-03-02T03:14:14;99217.22;;;10.37;91.84
75604;BME280;64187;51.010;13.792;2024-03-02T03:19:13;99219.63;;;10.28;92.26
75604;BME280;64187;51.010;13.792;2024-03-02T03:24:12;99216.06;;;10.17;92.88
75604;BME280;64187;51.010;13.792;2024-03-02T03:29:10;99210.41;;;10.19;92.44
75604;BME280;64187;51.010;13.792;2024-03-02T03:34:09;99221.41;;;9.91;93.90
75604;BME280;64187;51.010;13.792;2024-03-02T03:39:11;99212.81;;;10.15;93.71
75604;BME280;64187;51.010;13.792;2024-03-02T03:44:09;99210.59;;;9.91;95.08
75604;BME280;64187;51.010;13.792;2024-03-02T03:49:08;99207.41;;;10.15;93.73
75604;BME280;64187;51.010;13.792;2024-03-02T03:54:07;99200.59;;;9.97;94.35
75604;BME280;64187;51.010;13.792;2024-03-02T03:59:06;99208.47;;;10.09;93.91
75604;BME280;64187;51.010;13.792;2024-03-02T04:04:05;99217.69;;;10.18;93.01
75604;BME280;64187;51.010;13.792;2024-03-02T04:09:04;99215.50;;;10.15;93.12
75604;BME280;64187;51.010;13.792;2024-03-02T04:14:03;99213.28;;;9.86;94.72
75604;BME280;64187;51.010;13.792;2024-03-02T04:19:02;99229.00;;;10.05;93.98
75604;BME280;64187;51.010;13.792;2024-03-02T04:24:02;99225.66;;;9.72;95.54
75604;BME280;64187;51.010;13.792;2024-03-02T04:29:01;99225.47;;;9.89;94.61
75604;BME280;64187;51.010;13.792;2024-03-02T04:34:00;99232.75;;;9.93;94.28
75604;BME280;64187;51.010;13.792;2024-03-02T04:38:59;99240.91;;;9.99;93.44
75604;BME280;64187;51.010;13.792;2024-03-02T04:43:58;99234.97;;;10.02;93.76
75604;BME280;64187;51.010;13.792;2024-03-02T04:48:57;99241.72;;;10.04;93.21
75604;BME280;64187;51.010;13.792;2024-03-02T04:53:56;99253.00;;;9.91;93.80
75604;BME280;64187;51.010;13.792;2024-03-02T04:58:55;99246.53;;;9.92;93.40
75604;BME280;64187;51.010;13.792;2024-03-02T05:03:54;99261.75;;;10.13;92.43
75604;BME280;64187;51.010;13.792;2024-03-02T05:08:53;99263.09;;;10.11;91.69
75604;BME280;64187;51.010;13.792;2024-03-02T05:13:51;99273.59;;;9.97;92.65
75604;BME280;64187;51.010;13.792;2024-03-02T05:18:50;99281.59;;;10.29;90.76
75604;BME280;64187;51.010;13.792;2024-03-02T05:23:49;99284.22;;;10.14;90.90
75604;BME280;64187;51.010;13.792;2024-03-02T05:28:48;99289.38;;;10.26;90.25
75604;BME280;64187;51.010;13.792;2024-03-02T05:33:47;99293.16;;;10.20;90.04
75604;BME280;64187;51.010;13.792;2024-03-02T05:38:46;99292.63;;;10.23;89.41
75604;BME280;64187;51.010;13.792;2024-03-02T05:43:45;99301.34;;;10.35;89.45
75604;BME280;64187;51.010;13.792;2024-03-02T05:48:43;99311.63;;;10.43;88.26
75604;BME280;64187;51.010;13.792;2024-03-02T05:53:42;99321.94;;;10.46;87.68
75604;BME280;64187;51.010;13.792;2024-03-02T05:58:41;99318.38;;;10.35;88.46
75604;BME280;64187;51.010;13.792;2024-03-02T06:03:52;99321.91;;;10.36;88.73
75604;BME280;64187;51.010;13.792;2024-03-02T06:08:51;99335.63;;;10.24;89.14
75604;BME280;64187;51.010;13.792;2024-03-02T06:13:51;99338.69;;;10.43;88.23
75604;BME280;64187;51.010;13.792;2024-03-02T06:18:51;99343.03;;;10.44;87.58
75604;BME280;64187;51.010;13.792;2024-03-02T06:23:53;99346.78;;;10.38;87.71
75604;BME280;64187;51.010;13.792;2024-03-02T06:28:52;99354.09;;;10.32;87.76
75604;BME280;64187;51.010;13.792;2024-03-02T06:33:51;99344.09;;;10.43;87.49
75604;BME280;64187;51.010;13.792;2024-03-02T06:38:51;99351.84;;;10.19;87.76
75604;BME280;64187;51.010;13.792;2024-03-02T06:43:50;99355.91;;;10.22;88.03
75604;BME280;64187;51.010;13.792;2024-03-02T06:48:53;99365.38;;;10.19;87.75
75604;BME280;64187;51.010;13.792;2024-03-02T06:53:52;99368.69;;;10.31;87.06
75604;BME280;64187;51.010;13.792;2024-03-02T06:58:50;99384.38;;;10.34;86.54
75604;BME280;64187;51.010;13.792;2024-03-02T07:03:49;99387.31;;;10.28;87.08
75604;BME280;64187;51.010;13.792;2024-03-02T07:08:48;99389.78;;;10.29;87.18
75604;BME280;64187;51.010;13.792;2024-03-02T07:13:47;99389.19;;;10.27;87.00
75604;BME280;64187;51.010;13.792;2024-03-02T07:18:46;99388.56;;;10.10;87.96
75604;BME280;64187;51.010;13.792;2024-03-02T07:23:50;99392.06;;;10.10;87.87
75604;BME280;64187;51.010;13.792;2024-03-02T07:28:49;99394.53;;;10.12;87.85
75604;BME280;64187;51.010;13.792;2024-03-02T07:33:48;99397.78;;;10.14;87.87
75604;BME280;64187;51.010;13.792;2024-03-02T07:38:47;99401.78;;;10.01;88.69
75604;BME280;64187;51.010;13.792;2024-03-02T07:43:49;99408.50;;;10.41;86.79
75604;BME280;64187;51.010;13.792;2024-03-02T07:48:47;99417.69;;;10.45;86.48
75604;BME280;64187;51.010;13.792;2024-03-02T07:53:46;99424.75;;;10.41;86.39
75604;BME280;64187;51.010;13.792;2024-03-02T07:58:45;99433.16;;;10.50;85.91
75604;BME280;64187;51.010;13.792;2024-03-02T08:03:44;99435.56;;;10.41;86.10
75604;BME280;64187;51.010;13.792;2024-03-02T08:08:48;99441.22;;;10.40;86.28
75604;BME280;64187;51.010;13.792;2024-03-02T08:13:47;99443.28;;;10.27;86.70
75604;BME280;64187;51.010;13.792;2024-03-02T08:18:49;99451.03;;;10.13;87.48
75604;BME280;64187;51.010;13.792;2024-03-02T08:23:48;99447.28;;;10.14;87.28
75604;BME280;64187;51.010;13.792;2024-03-02T08:28:47;99445.13;;;10.17;86.97
75604;BME280;64187;51.010;13.792;2024-03-02T08:33:46;99459.13;;;10.08;86.89
75604;BME280;64187;51.010;13.792;2024-03-02T08:38:45;99463.66;;;9.98;87.36
75604;BME280;64187;51.010;13.792;2024-03-02T08:43:44;99461.09;;;10.23;86.66
75604;BME280;64187;51.010;13.792;2024-03-02T08:48:43;99462.91;;;10.45;85.85
75604;BME280;64187;51.010;13.792;2024-03-02T08:53:42;99458.63;;;10.59;84.78
75604;BME280;64187;51.010;13.792;2024-03-02T08:58:43;99451.94;;;10.77;83.79
75604;BME280;64187;51.010;13.792;2024-03-02T09:03:42;99450.09;;;10.98;82.41
75604;BME280;64187;51.010;13.792;2024-03-02T09:08:44;99455.00;;;11.01;81.22
75604;BME280;64187;51.010;13.792;2024-03-02T09:13:43;99461.28;;;11.22;81.57
75604;BME280;64187;51.010;13.792;2024-03-02T09:18:43;99461.53;;;11.15;80.80
75604;BME280;64187;51.010;13.792;2024-03-02T09:23:41;99464.06;;;11.63;78.66
75604;BME280;64187;51.010;13.792;2024-03-02T09:28:43;99477.56;;;11.37;78.71
75604;BME280;64187;51.010;13.792;2024-03-02T09:33:42;99481.38;;;11.47;79.01
75604;BME280;64187;51.010;13.792;2024-03-02T09:38:41;99473.47;;;11.19;78.70
75604;BME280;64187;51.010;13.792;2024-03-02T09:43:40;99487.47;;;10.86;81.26
75604;BME280;64187;51.010;13.792;2024-03-02T09:48:39;99487.19;;;10.87;81.14
75604;BME280;64187;51.010;13.792;2024-03-02T09:53:39;99490.47;;;10.99;80.35
75604;BME280;64187;51.010;13.792;2024-03-02T09:58:38;99481.56;;;11.04;80.74
75604;BME280;64187;51.010;13.792;2024-03-02T10:03:38;99485.91;;;11.10;80.58
75604;BME280;64187;51.010;13.792;2024-03-02T10:08:43;99477.00;;;11.25;79.39
75604;BME280;64187;51.010;13.792;2024-03-02T10:13:44;99472.69;;;11.29;79.43
75604;BME280;64187;51.010;13.792;2024-03-02T10:18:43;99464.31;;;11.67;78.21
75604;BME280;64187;51.010;13.792;2024-03-02T10:23:42;99466.25;;;11.92;76.64
75604;BME280;64187;51.010;13.792;2024-03-02T10:28:46;99464.31;;;11.51;77.62
75604;BME280;64187;51.010;13.792;2024-03-02T10:33:46;99462.16;;;12.04;74.84
75604;BME280;64187;51.010;13.792;2024-03-02T10:38:45;99448.91;;;12.03;76.01
75604;BME280;64187;51.010;13.792;2024-03-02T10:43:46;99433.84;;;12.52;73.65
75604;BME280;64187;51.010;13.792;2024-03-02T10:48:46;99432.19;;;13.15;72.08
75604;BME280;64187;51.010;13.792;2024-03-02T10:53:45;99424.53;;;13.28;69.94
75604;BME280;64187;51.010;13.792;2024-03-02T10:58:45;99418.13;;;13.48;70.05
75604;BME280;64187;51.010;13.792;2024-03-02T11:03:45;99414.78;;;13.90;66.77
75604;BME280;64187;51.010;13.792;2024-03-02T11:08:46;99410.09;;;13.96;64.16
75604;BME280;64187;51.010;13.792;2024-03-02T11:13:49;99415.09;;;14.13;65.27
75604;BME280;64187;51.010;13.792;2024-03-02T11:18:49;99414.59;;;14.35;63.34
75604;BME280;64187;51.010;13.792;2024-03-02T11:23:48;99411.94;;;14.30;63.59
75604;BME280;64187;51.010;13.792;2024-03-02T11:28:47;99419.09;;;14.20;63.27
75604;BME280;64187;51.010;13.792;2024-03-02T11:33:46;99417.00;;;14.12;61.79
75604;BME280;64187;51.010;13.792;2024-03-02T11:38:45;99408.91;;;14.07;62.52
75604;BME280;64187;51.010;13.792;2024-03-02T11:43:45;99411.31;;;13.50;64.94
75604;BME280;64187;51.010;13.792;2024-03-02T11:48:46;99399.63;;;13.50;63.88
75604;BME280;64187;51.010;13.792;2024-03-02T11:53:46;99399.69;;;13.45;64.63
75604;BME280;64187;51.010;13.792;2024-03-02T11:58:46;99391.91;;;13.62;63.62
75604;BME280;64187;51.010;13.792;2024-03-02T12:03:47;99400.97;;;13.52;63.20
75604;BME280;64187;51.010;13.792;2024-03-02T12:08:52;99400.88;;;13.28;64.11
75604;BME280;64187;51.010;13.792;2024-03-02T12:13:52;99402.81;;;13.18;63.87
75604;BME280;64187;51.010;13.792;2024-03-02T12:18:54;99400.28;;;12.92;66.27
75604;BME280;64187;51.010;13.792;2024-03-02T12:23:53;99405.00;;;12.66;66.20
75604;BME280;64187;51.010;13.792;2024-03-02T12:28:52;99398.31;;;12.48;66.75
75604;BME280;64187;51.010;13.792;2024-03-02T12:33:51;99394.44;;;12.59;66.33
75604;BME280;64187;51.010;13.792;2024-03-02T12:38:53;99390.38;;;12.57;66.61
75604;BME280;64187;51.010;13.792;2024-03-02T12:43:51;99389.00;;;12.59;66.45
75604;BME280;64187;51.010;13.792;2024-03-02T12:48:51;99388.69;;;12.71;64.95
75604;BME280;64187;51.010;13.792;2024-03-02T12:53:54;99390.34;;;13.11;64.94
75604;BME280;64187;51.010;13.792;2024-03-02T12:58:54;99384.94;;;13.06;64.80
75604;BME280;64187;51.010;13.792;2024-03-02T13:03:54;99383.75;;;13.23;64.49
75604;BME280;64187;51.010;13.792;2024-03-02T13:08:56;99389.38;;;13.71;63.10
75604;BME280;64187;51.010;13.792;2024-03-02T13:13:55;99386.34;;;13.43;61.97
75604;BME280;64187;51.010;13.792;2024-03-02T13:18:55;99382.63;;;13.34;62.40
75604;BME280;64187;51.010;13.792;2024-03-02T13:23:54;99382.16;;;13.17;62.61
75604;BME280;64187;51.010;13.792;2024-03-02T13:28:53;99379.97;;;13.19;62.46
75604;BME280;64187;51.010;13.792;2024-03-02T13:33:52;99380.28;;;13.17;62.83
75604;BME280;64187;51.010;13.792;2024-03-02T13:38:51;99387.88;;;13.20;62.65
75604;BME280;64187;51.010;13.792;2024-03-02T13:43:50;99393.09;;;13.06;62.86
75604;BME280;64187;51.010;13.792;2024-03-02T13:48:51;99396.13;;;13.05;63.52
75604;BME280;64187;51.010;13.792;2024-03-02T13:53:55;99399.84;;;12.64;63.88
75604;BME280;64187;51.010;13.792;2024-03-02T13:58:54;99391.53;;;12.45;65.99
75604;BME280;64187;51.010;13.792;2024-03-02T14:03:53;99387.78;;;12.26;66.04
75604;BME280;64187;51.010;13.792;2024-03-02T14:08:53;99389.22;;;12.03;67.32
75604;BME280;64187;51.010;13.792;2024-03-02T14:13:52;99385.44;;;11.94;67.43
75604;BME280;64187;51.010;13.792;2024-03-02T14:18:53;99383.75;;;12.18;66.39
75604;BME280;64187;51.010;13.792;2024-03-02T14:23:52;99383.72;;;12.28;65.80
75604;BME280;64187;51.010;13.792;2024-03-02T14:28:51;99388.91;;;12.20;66.10
75604;BME280;64187;51.010;13.792;2024-03-02T14:33:52;99382.09;;;12.33;66.28
75604;BME280;64187;51.010;13.792;2024-03-02T14:38:52;99385.88;;;12.32;65.05
75604;BME280;64187;51.010;13.792;2024-03-02T14:43:51;99389.09;;;12.39;65.86
75604;BME280;64187;51.010;13.792;2024-03-02T14:48:50;99379.13;;;12.24;65.10
75604;BME280;64187;51.010;13.792;2024-03-02T14:53:50;99376.69;;;12.22;65.91
75604;BME280;64187;51.010;13.792;2024-03-02T14:58:49;99375.63;;;12.13;66.17
75604;BME280;64187;51.010;13.792;2024-03-02T15:03:50;99369.91;;;12.20;65.87
75604;BME280;64187;51.010;13.792;2024-03-02T15:08:49;99366.38;;;12.19;66.00
75604;BME280;64187;51.010;13.792;2024-03-02T15:13:48;99363.41;;;12.21;65.18
75604;BME280;64187;51.010;13.792;2024-03-02T15:18:47;99365.09;;;11.96;66.15
75604;BME280;64187;51.010;13.792;2024-03-02T15:23:46;99365.34;;;12.00;65.71
75604;BME280;64187;51.010;13.792;2024-03-02T15:28:45;99358.22;;;12.24;65.35
75604;BME280;64187;51.010;13.792;2024-03-02T15:33:44;99354.50;;;12.05;65.69
75604;BME280;64187;51.010;13.792;2024-03-02T15:38:43;99355.59;;;11.94;65.89
75604;BME280;64187;51.010;13.792;2024-03-02T15:43:42;99359.41;;;11.72;66.71
75604;BME280;64187;51.010;13.792;2024-03-02T15:48:41;99348.03;;;11.80;66.61
75604;BME280;64187;51.010;13.792;2024-03-02T15:53:40;99347.50;;;11.63;67.70
75604;BME280;64187;51.010;13.792;2024-03-02T15:58:39;99353.16;;;11.77;67.68
75604;BME280;64187;51.010;13.792;2024-03-02T16:03:38;99348.56;;;11.93;66.56
75604;BME280;64187;51.010;13.792;2024-03-02T16:08:38;99348.34;;;11.43;67.60
75604;BME280;64187;51.010;13.792;2024-03-02T16:13:37;99338.53;;;11.83;65.86
75604;BME280;64187;51.010;13.792;2024-03-02T16:18:36;99331.75;;;11.60;67.06
75604;BME280;64187;51.010;13.792;2024-03-02T16:23:35;99343.72;;;11.59;68.88
75604;BME280;64187;51.010;13.792;2024-03-02T16:28:34;99340.75;;;11.55;68.37
75604;BME280;64187;51.010;13.792;2024-03-02T16:33:33;99329.59;;;11.62;68.52
75604;BME280;64187;51.010;13.792;2024-03-02T16:38:33;99339.06;;;11.75;68.19
75604;BME280;64187;51.010;13.792;2024-03-02T16:43:31;99341.53;;;11.56;68.82
75604;BME280;64187;51.010;13.792;2024-03-02T16:48:30;99341.25;;;11.73;68.50
75604;BME280;64187;51.010;13.792;2024-03-02T16:53:29;99352.09;;;11.62;69.27
75604;BME280;64187;51.010;13.792;2024-03-02T16:58:28;99350.75;;;11.45;69.13
75604;BME280;64187;51.010;13.792;2024-03-02T17:03:27;99351.84;;;11.43;69.36
75604;BME280;64187;51.010;13.792;2024-03-02T17:08:26;99358.63;;;11.51;69.73
75604;BME280;64187;51.010;13.792;2024-03-02T17:13:25;99364.28;;;11.55;69.37
75604;BME280;64187;51.010;13.792;2024-03-02T17:18:24;99373.53;;;11.38;70.46
75604;BME280;64187;51.010;13.792;2024-03-02T17:23:23;99373.00;;;11.36;70.30
75604;BME280;64187;51.010;13.792;2024-03-02T17:28:25;99374.09;;;11.35;70.72
75604;BME280;64187;51.010;13.792;2024-03-02T17:33:27;99371.38;;;11.40;70.54
75604;BME280;64187;51.010;13.792;2024-03-02T17:38:26;99367.03;;;11.29;71.12
75604;BME280;64187;51.010;13.792;2024-03-02T17:43:26;99366.47;;;11.07;72.10
75604;BME280;64187;51.010;13.792;2024-03-02T17:48:25;99362.63;;;10.92;72.83
75604;BME280;64187;51.010;13.792;2024-03-02T17:53:24;99368.03;;;10.77;73.73
75604;BME280;64187;51.010;13.792;2024-03-02T17:58:23;99358.53;;;10.64;74.15
75604;BME280;64187;51.010;13.792;2024-03-02T18:03:22;99351.19;;;10.60;74.11
75604;BME280;64187;51.010;13.792;2024-03-02T18:08:20;99354.16;;;10.58;74.69
75604;BME280;64187;51.010;13.792;2024-03-02T18:13:19;99350.03;;;10.35;75.84
75604;BME280;64187;51.010;13.792;2024-03-02T18:18:18;99351.09;;;10.29;75.19
75604;BME280;64187;51.010;13.792;2024-03-02T18:23:17;99349.47;;;10.33;75.28
75604;BME280;64187;51.010;13.792;2024-03-02T18:28:16;99343.44;;;11.09;73.14
75604;BME280;64187;51.010;13.792;2024-03-02T18:33:15;99338.78;;;10.64;74.03
75604;BME280;64187;51.010;13.792;2024-03-02T18:38:14;99327.91;;;10.48;74.80
75604;BME280;64187;51.010;13.792;2024-03-02T18:43:13;99331.94;;;10.46;75.12
75604;BME280;64187;51.010;13.792;2024-03-02T18:48:12;99326.38;;;10.10;76.56
75604;BME280;64187;51.010;13.792;2024-03-02T18:53:11;99325.25;;;10.06;76.63
75604;BME280;64187;51.010;13.792;2024-03-02T18:58:11;99325.13;;;9.80;78.13
75604;BME280;64187;51.010;13.792;2024-03-02T19:03:10;99334.63;;;9.88;77.54
75604;BME280;64187;51.010;13.792;2024-03-02T19:08:09;99334.91;;;9.86;78.03
75604;BME280;64187;51.010;13.792;2024-03-02T19:13:12;99329.22;;;9.88;77.52
75604;BME280;64187;51.010;13.792;2024-03-02T19:18:11;99324.38;;;9.90;77.89
75604;BME280;64187;51.010;13.792;2024-03-02T19:23:10;99325.19;;;9.90;77.19
75604;BME280;64187;51.010;13.792;2024-03-02T19:28:16;99318.47;;;9.98;77.04
75604;BME280;64187;51.010;13.792;2024-03-02T19:33:15;99319.59;;;10.07;76.50
75604;BME280;64187;51.010;13.792;2024-03-02T19:38:14;99318.25;;;10.10;76.25
75604;BME280;64187;51.010;13.792;2024-03-02T19:43:13;99312.03;;;10.04;76.73
75604;BME280;64187;51.010;13.792;2024-03-02T19:48:16;99304.41;;;9.96;77.09
75604;BME280;64187;51.010;13.792;2024-03-02T19:53:16;99295.75;;;9.94;77.31
75604;BME280;64187;51.010;13.792;2024-03-02T19:58:15;99295.50;;;9.53;79.05
75604;BME280;64187;51.010;13.792;2024-03-02T20:03:14;99297.22;;;9.64;78.38
75604;BME280;64187;51.010;13.792;2024-03-02T20:08:13;99292.59;;;9.60;78.95
75604;BME280;64187;51.010;13.792;2024-03-02T20:13:12;99288.72;;;9.45;79.62
75604;BME280;64187;51.010;13.792;2024-03-02T20:18:11;99283.03;;;9.42;79.95
75604;BME280;64187;51.010;13.792;2024-03-02T20:23:10;99283.47;;;9.28;81.11
75604;BME280;64187;51.010;13.792;2024-03-02T20:28:09;99273.72;;;9.22;81.10
75604;BME280;64187;51.010;13.792;2024-03-02T20:33:08;99266.59;;;9.54;80.03
75604;BME280;64187;51.010;13.792;2024-03-02T20:38:07;99267.09;;;9.45;80.19
75604;BME280;64187;51.010;13.792;2024-03-02T20:43:06;99256.78;;;9.32;80.95
75604;BME280;64187;51.010;13.792;2024-03-02T20:48:05;99269.34;;;9.16;81.54
75604;BME280;64187;51.010;13.792;2024-03-02T20:53:04;99263.06;;;9.48;80.51
75604;BME280;64187;51.010;13.792;2024-03-02T20:58:06;99253.34;;;9.47;80.32
75604;BME280;64187;51.010;13.792;2024-03-02T21:03:04;99253.59;;;9.03;82.80
75604;BME280;64187;51.010;13.792;2024-03-02T21:08:04;99249.44;;;8.90;83.18
75604;BME280;64187;51.010;13.792;2024-03-02T21:13:03;99249.31;;;9.07;82.31
75604;BME280;64187;51.010;13.792;2024-03-02T21:18:02;99245.69;;;8.64;84.36
75604;BME280;64187;51.010;13.792;2024-03-02T21:23:02;99243.91;;;8.43;85.23
75604;BME280;64187;51.010;13.792;2024-03-02T21:28:01;99241.84;;;8.55;86.15
75604;BME280;64187;51.010;13.792;2024-03-02T21:33:01;99234.78;;;8.81;85.57
75604;BME280;64187;51.010;13.792;2024-03-02T21:38:01;99242.19;;;8.96;84.81
75604;BME280;64187;51.010;13.792;2024-03-02T21:43:04;99246.16;;;8.83;85.45
75604;BME280;64187;51.010;13.792;2024-03-02T21:48:03;99239.75;;;8.94;84.83
75604;BME280;64187;51.010;13.792;2024-03-02T21:53:03;99243.72;;;8.87;84.72
75604;BME280;64187;51.010;13.792;2024-03-02T21:58:02;99236.63;;;8.75;84.54
75604;BME280;64187;51.010;13.792;2024-03-02T22:03:02;99236.50;;;8.60;84.67
75604;BME280;64187;51.010;13.792;2024-03-02T22:08:02;99234.06;;;8.91;84.73
75604;BME280;64187;51.010;13.792;2024-03-02T22:13:00;99234.78;;;8.49;85.82
75604;BME280;64187;51.010;13.792;2024-03-02T22:17:59;99230.91;;;8.39;85.77
75604;BME280;64187;51.010;13.792;2024-03-02T22:23:01;99223.47;;;8.52;85.84
75604;BME280;64187;51.010;13.792;2024-03-02T22:28:00;99222.13;;;8.54;86.64
75604;BME280;64187;51.010;13.792;2024-03-02T22:32:59;99218.16;;;8.62;87.51
75604;BME280;64187;51.010;13.792;2024-03-02T22:37:58;99216.38;;;8.73;86.86
75604;BME280;64187;51.010;13.792;2024-03-02T22:42:57;99227.25;;;8.83;86.60
75604;BME280;64187;51.010;13.792;2024-03-02T22:47:57;99229.34;;;8.76;86.82
75604;BME280;64187;51.010;13.792;2024-03-02T22:52:58;99225.25;;;8.68;87.12
75604;BME280;64187;51.010;13.792;2024-03-02T22:57:57;99226.16;;;8.84;86.28
75604;BME280;64187;51.010;13.792;2024-03-02T23:02:56;99225.13;;;8.85;86.58
75604;BME280;64187;51.010;13.792;2024-03-02T23:07:55;99215.69;;;8.88;86.43
75604;BME280;64187;51.010;13.792;2024-03-02T23:12:54;99210.25;;;8.82;86.49
75604;BME280;64187;51.010;13.792;2024-03-02T23:17:53;99210.28;;;8.88;85.78
75604;BME280;64187;51.010;13.792;2024-03-02T23:22:53;99205.94;;;8.87;85.75
75604;BME280;64187;51.010;13.792;2024-03-02T23:27:51;99207.16;;;8.69;85.76
75604;BME280;64187;51.010;13.792;2024-03-02T23:32:51;99193.44;;;8.70;85.01
75604;BME280;64187;51.010;13.792;2024-03-02T23:37:51;99194.19;;;8.66;84.79
75604;BME280;64187;51.010;13.792;2024-03-02T23:42:51;99189.53;;;8.56;84.85
75604;BME280;64187;51.010;13.792;2024-03-02T23:47:50;99181.91;;;8.20;84.34
75604;BME280;64187;51.010;13.792;2024-03-02T23:52:49;99175.47;;;7.99;84.13
75604;BME280;64187;51.010;13.792;2024-03-02T23:57:48;99168.66;;;7.92;85.28
